sensor_id;sensor_type;location;lat;lon;timestamp;temperature;humidity
52979;DHT22;63430;53.186;6.598;2024-01-15T00:00:43;1.70;99.90
52979;DHT22;63430;53.186;6.598;2024-01-15T00:02:47;1.70;99.90
52979;DHT22;63430;53.186;6.598;2024-01-15T00:04:51;1.80;99.90
52979;DHT22;63430;53.186;6.598;2024-01-15T00:06:54;1.90;99.90
52979;DHT22;63430;53.186;6.598;2024-01-15T00:08:56;1.80;99.90
52979;DHT22;63430;53.186;6.598;2024-01-15T00:11:20;1.70;99.90
52979;DHT22;63430;53.186;6.598;2024-01-15T00:13:43;1.60;99.90
52979;DHT22;63430;53.186;6.598;2024-01-15T00:15:48;1.50;99.90
52979;DHT22;63430;53.186;6.598;2024-01-15T00:17:52;1.50;99.90
52979;DHT22;63430;53.186;6.598;2024-01-15T00:19:54;1.50;99.90
52979;DHT22;63430;53.186;6.598;2024-01-15T00:21:57;1.50;99.90
52979;DHT22;63430;53.186;6.598;2024-01-15T00:23:59;1.50;99.90
52979;DHT22;63430;53.186;6.598;2024-01-15T00:26:02;1.50;99.90
52979;DHT22;63430;53.186;6.598;2024-01-15T00:28:05;1.50;99.90
52979;DHT22;63430;53.186;6.598;2024-01-15T00:30:09;1.60;99.90
52979;DHT22;63430;53.186;6.598;2024-01-15T00:32:14;1.60;99.90
52979;DHT22;63430;53.186;6.598;2024-01-15T00:34:17;1.60;99.90
52979;DHT22;63430;53.186;6.598;2024-01-15T00:36:19;1.60;99.90
52979;DHT22;63430;53.186;6.598;2024-01-15T00:38:22;1.50;99.90
52979;DHT22;63430;53.186;6.598;2024-01-15T00:40:25;1.50;99.90
52979;DHT22;63430;53.186;6.598;2024-01-15T00:42:28;1.50;99.90
52979;DHT22;63430;53.186;6.598;2024-01-15T00:44:30;1.40;99.90
52979;DHT22;63430;53.186;6.598;2024-01-15T00:46:33;1.50;99.90
52979;DHT22;63430;53.186;6.598;2024-01-15T00:48:38;1.50;99.90
52979;DHT22;63430;53.186;6.598;2024-01-15T00:50:41;1.50;99.90
52979;DHT22;63430;53.186;6.598;2024-01-15T00:52:43;1.50;99.90
52979;DHT22;63430;53.186;6.598;2024-01-15T00:54:46;1.50;99.90
52979;DHT22;63430;53.186;6.598;2024-01-15T00:56:48;1.50;99.90
52979;DHT22;63430;53.186;6.598;2024-01-15T00:58:51;1.50;99.90
52979;DHT22;63430;53.186;6.598;2024-01-15T01:00:53;1.50;99.90
52979;DHT22;63430;53.186;6.598;2024-01-15T01:02:56;1.60;99.90
52979;DHT22;63430;53.186;6.598;2024-01-15T01:05:01;1.60;99.90
52979;DHT22;63430;53.186;6.598;2024-01-15T01:07:04;1.60;99.90
52979;DHT22;63430;53.186;6.598;2024-01-15T01:09:07;1.60;99.90
52979;DHT22;63430;53.186;6.598;2024-01-15T01:11:13;1.60;99.90
52979;DHT22;63430;53.186;6.598;2024-01-15T01:13:15;1.60;99.90
52979;DHT22;63430;53.186;6.598;2024-01-15T01:15:18;1.50;99.90
52979;DHT22;63430;53.186;6.598;2024-01-15T01:17:21;1.50;99.90
52979;DHT22;63430;53.186;6.598;2024-01-15T01:19:25;1.50;99.90
52979;DHT22;63430;53.186;6.598;2024-01-15T01:21:30;1.50;99.90
52979;DHT22;63430;53.186;6.598;2024-01-15T01:23:33;1.50;99.90
52979;DHT22;63430;53.186;6.598;2024-01-15T01:25:36;1.50;99.90
52979;DHT22;63430;53.186;6.598;2024-01-15T01:27:38;1.60;99.90
52979;DHT22;63430;53.186;6.598;2024-01-15T01:29:41;1.60;99.90
52979;DHT22;63430;53.186;6.598;2024-01-15T01:32:04;1.70;99.90
52979;DHT22;63430;53.186;6.598;2024-01-15T01:34:07;1.70;99.90
52979;DHT22;63430;53.186;6.598;2024-01-15T01:36:34;1.80;99.90
52979;DHT22;63430;53.186;6.598;2024-01-15T01:38:56;1.80;99.90
52979;DHT22;63430;53.186;6.598;2024-01-15T01:40:59;1.80;99.90
52979;DHT22;63430;53.186;6.598;2024-01-15T01:43:03;1.90;99.90
52979;DHT22;63430;53.186;6.598;2024-01-15T01:45:06;2.00;99.90
52979;DHT22;63430;53.186;6.598;2024-01-15T01:47:09;1.90;99.90
52979;DHT22;63430;53.186;6.598;2024-01-15T01:49:12;1.90;99.90
52979;DHT22;63430;53.186;6.598;2024-01-15T01:51:15;1.90;99.90
52979;DHT22;63430;53.186;6.598;2024-01-15T01:53:20;1.90;99.90
52979;DHT22;63430;53.186;6.598;2024-01-15T01:55:27;1.90;99.90
52979;DHT22;63430;53.186;6.598;2024-01-15T01:57:31;1.90;99.90
52979;DHT22;63430;53.186;6.598;2024-01-15T01:59:35;1.90;99.90
52979;DHT22;63430;53.186;6.598;2024-01-15T02:01:39;1.90;99.90
52979;DHT22;63430;53.186;6.598;2024-01-15T02:03:43;1.90;99.90
52979;DHT22;63430;53.186;6.598;2024-01-15T02:05:48;1.80;99.90
52979;DHT22;63430;53.186;6.598;2024-01-15T02:07:51;1.80;99.90
52979;DHT22;63430;53.186;6.598;2024-01-15T02:09:56;1.80;99.90
52979;DHT22;63430;53.186;6.598;2024-01-15T02:11:59;1.80;99.90
52979;DHT22;63430;53.186;6.598;2024-01-15T02:14:02;1.80;99.90
52979;DHT22;63430;53.186;6.598;2024-01-15T02:16:05;1.80;99.90
52979;DHT22;63430;53.186;6.598;2024-01-15T02:18:08;1.90;99.90
52979;DHT22;63430;53.186;6.598;2024-01-15T02:20:12;1.90;99.90
52979;DHT22;63430;53.186;6.598;2024-01-15T02:22:14;1.90;99.90
52979;DHT22;63430;53.186;6.598;2024-01-15T02:24:19;1.90;99.90
52979;DHT22;63430;53.186;6.598;2024-01-15T02:26:22;1.90;99.90
52979;DHT22;63430;53.186;6.598;2024-01-15T02:28:25;1.90;99.90
52979;DHT22;63430;53.186;6.598;2024-01-15T02:30:28;1.90;99.90
52979;DHT22;63430;53.186;6.598;2024-01-15T02:32:31;1.90;99.90
52979;DHT22;63430;53.186;6.598;2024-01-15T02:34:34;1.90;99.90
52979;DHT22;63430;53.186;6.598;2024-01-15T02:36:37;1.90;99.90
52979;DHT22;63430;53.186;6.598;2024-01-15T02:38:41;1.90;99.90
52979;DHT22;63430;53.186;6.598;2024-01-15T02:40:46;1.90;99.90
52979;DHT22;63430;53.186;6.598;2024-01-15T02:42:49;1.90;99.90
52979;DHT22;63430;53.186;6.598;2024-01-15T02:44:51;1.90;99.90
52979;DHT22;63430;53.186;6.598;2024-01-15T02:46:54;1.90;99.90
52979;DHT22;63430;53.186;6.598;2024-01-15T02:48:56;1.90;99.90
52979;DHT22;63430;53.186;6.598;2024-01-15T02:50:59;2.00;99.90
52979;DHT22;63430;53.186;6.598;2024-01-15T02:53:02;2.00;99.90
52979;DHT22;63430;53.186;6.598;2024-01-15T02:55:06;2.00;99.90
52979;DHT22;63430;53.186;6.598;2024-01-15T02:57:11;2.00;99.90
52979;DHT22;63430;53.186;6.598;2024-01-15T02:59:14;2.00;99.90
52979;DHT22;63430;53.186;6.598;2024-01-15T03:01:18;1.90;99.90
52979;DHT22;63430;53.186;6.598;2024-01-15T03:03:22;1.90;99.90
52979;DHT22;63430;53.186;6.598;2024-01-15T03:05:25;1.90;99.90
52979;DHT22;63430;53.186;6.598;2024-01-15T03:07:28;1.80;99.90
52979;DHT22;63430;53.186;6.598;2024-01-15T03:09:31;1.80;99.90
52979;DHT22;63430;53.186;6.598;2024-01-15T03:11:37;1.90;99.90
52979;DHT22;63430;53.186;6.598;2024-01-15T03:13:43;2.10;99.90
52979;DHT22;63430;53.186;6.598;2024-01-15T03:15:46;1.70;99.90
52979;DHT22;63430;53.186;6.598;2024-01-15T03:17:49;1.80;99.90
52979;DHT22;63430;53.186;6.598;2024-01-15T03:19:53;1.80;99.90
52979;DHT22;63430;53.186;6.598;2024-01-15T03:21:56;1.70;99.90
52979;DHT22;63430;53.186;6.598;2024-01-15T03:23:59;1.70;99.90
52979;DHT22;63430;53.186;6.598;2024-01-15T03:26:02;1.80;99.90
52979;DHT22;63430;53.186;6.598;2024-01-15T03:28:05;1.80;99.90
52979;DHT22;63430;53.186;6.598;2024-01-15T03:30:12;1.80;99.90
52979;DHT22;63430;53.186;6.598;2024-01-15T03:32:14;1.90;99.90
52979;DHT22;63430;53.186;6.598;2024-01-15T03:34:38;1.90;99.90
52979;DHT22;63430;53.186;6.598;2024-01-15T03:36:41;1.90;99.90
52979;DHT22;63430;53.186;6.598;2024-01-15T03:38:44;2.00;99.90
52979;DHT22;63430;53.186;6.598;2024-01-15T03:40:47;1.90;99.90
52979;DHT22;63430;53.186;6.598;2024-01-15T03:42:50;1.90;99.90
52979;DHT22;63430;53.186;6.598;2024-01-15T03:44:53;1.80;99.90
52979;DHT22;63430;53.186;6.598;2024-01-15T03:46:58;1.80;99.90
52979;DHT22;63430;53.186;6.598;2024-01-15T03:49:02;1.90;99.90
52979;DHT22;63430;53.186;6.598;2024-01-15T03:51:05;1.80;99.90
52979;DHT22;63430;53.186;6.598;2024-01-15T03:53:08;1.80;99.90
52979;DHT22;63430;53.186;6.598;2024-01-15T03:55:10;1.90;99.90
52979;DHT22;63430;53.186;6.598;2024-01-15T03:57:13;1.80;99.90
52979;DHT22;63430;53.186;6.598;2024-01-15T03:59:16;1.80;99.90
52979;DHT22;63430;53.186;6.598;2024-01-15T04:01:18;1.80;99.90
52979;DHT22;63430;53.186;6.598;2024-01-15T04:03:24;1.80;99.90
52979;DHT22;63430;53.186;6.598;2024-01-15T04:05:27;1.80;99.90
52979;DHT22;63430;53.186;6.598;2024-01-15T04:07:30;1.80;99.90
52979;DHT22;63430;53.186;6.598;2024-01-15T04:09:32;1.80;99.90
52979;DHT22;63430;53.186;6.598;2024-01-15T04:11:55;1.80;99.90
52979;DHT22;63430;53.186;6.598;2024-01-15T04:13:57;1.80;99.90
52979;DHT22;63430;53.186;6.598;2024-01-15T04:16:00;1.90;99.90
52979;DHT22;63430;53.186;6.598;2024-01-15T04:18:03;2.00;99.90
52979;DHT22;63430;53.186;6.598;2024-01-15T04:20:10;2.10;99.90
52979;DHT22;63430;53.186;6.598;2024-01-15T04:22:14;2.20;99.90
52979;DHT22;63430;53.186;6.598;2024-01-15T04:24:17;2.20;99.90
52979;DHT22;63430;53.186;6.598;2024-01-15T04:26:20;2.30;99.90
52979;DHT22;63430;53.186;6.598;2024-01-15T04:28:23;2.30;99.90
52979;DHT22;63430;53.186;6.598;2024-01-15T04:30:26;2.30;99.90
52979;DHT22;63430;53.186;6.598;2024-01-15T04:32:29;2.30;99.90
52979;DHT22;63430;53.186;6.598;2024-01-15T04:34:51;2.20;99.90
52979;DHT22;63430;53.186;6.598;2024-01-15T04:36:57;2.20;99.90
52979;DHT22;63430;53.186;6.598;2024-01-15T04:39:00;2.10;99.90
52979;DHT22;63430;53.186;6.598;2024-01-15T04:41:03;2.10;99.90
52979;DHT22;63430;53.186;6.598;2024-01-15T04:43:05;2.00;99.90
52979;DHT22;63430;53.186;6.598;2024-01-15T04:45:09;1.90;99.90
52979;DHT22;63430;53.186;6.598;2024-01-15T04:47:12;1.90;99.90
52979;DHT22;63430;53.186;6.598;2024-01-15T04:49:14;1.80;99.90
52979;DHT22;63430;53.186;6.598;2024-01-15T04:51:18;1.70;99.90
52979;DHT22;63430;53.186;6.598;2024-01-15T04:53:23;1.70;99.90
52979;DHT22;63430;53.186;6.598;2024-01-15T04:55:26;1.70;99.90
52979;DHT22;63430;53.186;6.598;2024-01-15T04:57:29;1.70;99.90
52979;DHT22;63430;53.186;6.598;2024-01-15T04:59:31;1.70;99.90
52979;DHT22;63430;53.186;6.598;2024-01-15T05:01:34;1.60;99.90
52979;DHT22;63430;53.186;6.598;2024-01-15T05:03:37;1.60;99.90
52979;DHT22;63430;53.186;6.598;2024-01-15T05:05:59;1.60;99.90
52979;DHT22;63430;53.186;6.598;2024-01-15T05:08:02;1.50;99.90
52979;DHT22;63430;53.186;6.598;2024-01-15T05:10:09;1.50;99.90
52979;DHT22;63430;53.186;6.598;2024-01-15T05:12:12;1.40;99.90
52979;DHT22;63430;53.186;6.598;2024-01-15T05:14:15;1.40;99.90
52979;DHT22;63430;53.186;6.598;2024-01-15T05:16:18;1.30;99.90
52979;DHT22;63430;53.186;6.598;2024-01-15T05:18:21;1.30;99.90
52979;DHT22;63430;53.186;6.598;2024-01-15T05:20:24;1.30;99.90
52979;DHT22;63430;53.186;6.598;2024-01-15T05:22:28;1.20;99.90
52979;DHT22;63430;53.186;6.598;2024-01-15T05:24:30;1.20;99.90
52979;DHT22;63430;53.186;6.598;2024-01-15T05:26:36;1.10;99.90
52979;DHT22;63430;53.186;6.598;2024-01-15T05:28:38;1.10;99.90
52979;DHT22;63430;53.186;6.598;2024-01-15T05:30:43;1.00;99.90
52979;DHT22;63430;53.186;6.598;2024-01-15T05:32:45;1.00;99.90
52979;DHT22;63430;53.186;6.598;2024-01-15T05:34:48;1.00;99.90
52979;DHT22;63430;53.186;6.598;2024-01-15T05:36:50;1.00;99.90
52979;DHT22;63430;53.186;6.598;2024-01-15T05:38:53;0.90;99.90
52979;DHT22;63430;53.186;6.598;2024-01-15T05:40:56;0.90;99.90
52979;DHT22;63430;53.186;6.598;2024-01-15T05:43:01;0.90;99.90
52979;DHT22;63430;53.186;6.598;2024-01-15T05:45:05;0.80;99.90
52979;DHT22;63430;53.186;6.598;2024-01-15T05:47:08;0.80;99.90
52979;DHT22;63430;53.186;6.598;2024-01-15T05:49:10;0.80;99.90
52979;DHT22;63430;53.186;6.598;2024-01-15T05:51:13;0.80;99.90
52979;DHT22;63430;53.186;6.598;2024-01-15T05:53:15;0.80;99.90
52979;DHT22;63430;53.186;6.598;2024-01-15T05:55:18;0.80;99.90
52979;DHT22;63430;53.186;6.598;2024-01-15T05:57:20;0.80;99.90
52979;DHT22;63430;53.186;6.598;2024-01-15T05:59:26;0.90;99.90
52979;DHT22;63430;53.186;6.598;2024-01-15T06:01:28;1.00;99.90
52979;DHT22;63430;53.186;6.598;2024-01-15T06:03:31;1.00;99.90
52979;DHT22;63430;53.186;6.598;2024-01-15T06:05:33;1.10;99.90
52979;DHT22;63430;53.186;6.598;2024-01-15T06:07:36;1.20;99.90
52979;DHT22;63430;53.186;6.598;2024-01-15T06:09:59;1.30;99.90
52979;DHT22;63430;53.186;6.598;2024-01-15T06:12:01;1.30;99.90
52979;DHT22;63430;53.186;6.598;2024-01-15T06:14:04;1.30;99.90
52979;DHT22;63430;53.186;6.598;2024-01-15T06:16:14;1.20;99.90
52979;DHT22;63430;53.186;6.598;2024-01-15T06:18:19;1.20;99.90
52979;DHT22;63430;53.186;6.598;2024-01-15T06:20:21;1.20;99.90
52979;DHT22;63430;53.186;6.598;2024-01-15T06:22:24;1.10;99.90
52979;DHT22;63430;53.186;6.598;2024-01-15T06:24:47;1.20;99.90
52979;DHT22;63430;53.186;6.598;2024-01-15T06:26:50;1.20;99.90
52979;DHT22;63430;53.186;6.598;2024-01-15T06:28:52;1.20;99.90
52979;DHT22;63430;53.186;6.598;2024-01-15T06:30:55;1.20;99.90
52979;DHT22;63430;53.186;6.598;2024-01-15T06:33:00;1.20;99.90
52979;DHT22;63430;53.186;6.598;2024-01-15T06:35:03;1.20;99.90
52979;DHT22;63430;53.186;6.598;2024-01-15T06:37:05;1.20;99.90
52979;DHT22;63430;53.186;6.598;2024-01-15T06:39:08;1.20;99.90
52979;DHT22;63430;53.186;6.598;2024-01-15T06:41:12;1.20;99.90
52979;DHT22;63430;53.186;6.598;2024-01-15T06:43:15;1.30;99.90
52979;DHT22;63430;53.186;6.598;2024-01-15T06:45:20;1.30;99.90
52979;DHT22;63430;53.186;6.598;2024-01-15T06:47:22;1.40;99.90
52979;DHT22;63430;53.186;6.598;2024-01-15T06:49:28;1.40;99.90
52979;DHT22;63430;53.186;6.598;2024-01-15T06:51:30;1.40;99.90
52979;DHT22;63430;53.186;6.598;2024-01-15T06:53:33;1.40;99.90
52979;DHT22;63430;53.186;6.598;2024-01-15T06:55:35;1.40;99.90
52979;DHT22;63430;53.186;6.598;2024-01-15T06:57:38;1.50;99.90
52979;DHT22;63430;53.186;6.598;2024-01-15T06:59:41;1.40;99.90
52979;DHT22;63430;53.186;6.598;2024-01-15T07:01:43;1.40;99.90
52979;DHT22;63430;53.186;6.598;2024-01-15T07:03:46;1.40;99.90
52979;DHT22;63430;53.186;6.598;2024-01-15T07:06:11;1.40;99.90
52979;DHT22;63430;53.186;6.598;2024-01-15T07:08:14;1.50;99.90
52979;DHT22;63430;53.186;6.598;2024-01-15T07:10:36;1.50;99.90
52979;DHT22;63430;53.186;6.598;2024-01-15T07:12:59;1.50;99.90
52979;DHT22;63430;53.186;6.598;2024-01-15T07:15:01;1.50;99.90
52979;DHT22;63430;53.186;6.598;2024-01-15T07:17:24;1.50;99.90
52979;DHT22;63430;53.186;6.598;2024-01-15T07:19:26;1.40;99.90
52979;DHT22;63430;53.186;6.598;2024-01-15T07:21:33;1.40;99.90
52979;DHT22;63430;53.186;6.598;2024-01-15T07:23:55;1.40;99.90
52979;DHT22;63430;53.186;6.598;2024-01-15T07:25:58;1.40;99.90
52979;DHT22;63430;53.186;6.598;2024-01-15T07:28:01;1.30;99.90
52979;DHT22;63430;53.186;6.598;2024-01-15T07:30:05;1.30;99.90
52979;DHT22;63430;53.186;6.598;2024-01-15T07:32:10;1.20;99.90
52979;DHT22;63430;53.186;6.598;2024-01-15T07:34:32;1.10;99.90
52979;DHT22;63430;53.186;6.598;2024-01-15T07:36:38;1.10;99.90
52979;DHT22;63430;53.186;6.598;2024-01-15T07:38:40;1.00;99.90
52979;DHT22;63430;53.186;6.598;2024-01-15T07:40:43;1.00;99.90
52979;DHT22;63430;53.186;6.598;2024-01-15T07:42:45;1.00;99.90
52979;DHT22;63430;53.186;6.598;2024-01-15T07:44:48;0.90;99.90
52979;DHT22;63430;53.186;6.598;2024-01-15T07:46:50;0.90;99.90
52979;DHT22;63430;53.186;6.598;2024-01-15T07:48:53;0.90;99.90
52979;DHT22;63430;53.186;6.598;2024-01-15T07:50:58;0.90;99.90
52979;DHT22;63430;53.186;6.598;2024-01-15T07:53:04;1.00;99.90
52979;DHT22;63430;53.186;6.598;2024-01-15T07:55:07;1.10;99.90
52979;DHT22;63430;53.186;6.598;2024-01-15T07:57:10;1.10;99.90
52979;DHT22;63430;53.186;6.598;2024-01-15T07:59:13;1.20;99.90
52979;DHT22;63430;53.186;6.598;2024-01-15T08:01:15;1.20;99.90
52979;DHT22;63430;53.186;6.598;2024-01-15T08:03:38;1.10;99.90
52979;DHT22;63430;53.186;6.598;2024-01-15T08:05:41;1.10;99.90
52979;DHT22;63430;53.186;6.598;2024-01-15T08:07:44;1.00;99.90
52979;DHT22;63430;53.186;6.598;2024-01-15T08:09:49;1.00;99.90
52979;DHT22;63430;53.186;6.598;2024-01-15T08:11:51;1.00;99.90
52979;DHT22;63430;53.186;6.598;2024-01-15T08:13:53;1.00;99.90
52979;DHT22;63430;53.186;6.598;2024-01-15T08:15:56;1.00;99.90
52979;DHT22;63430;53.186;6.598;2024-01-15T08:17:58;1.10;99.90
52979;DHT22;63430;53.186;6.598;2024-01-15T08:20:01;1.10;99.90
52979;DHT22;63430;53.186;6.598;2024-01-15T08:22:05;1.20;99.90
52979;DHT22;63430;53.186;6.598;2024-01-15T08:24:08;1.20;99.90
52979;DHT22;63430;53.186;6.598;2024-01-15T08:26:14;0.40;99.90
52979;DHT22;63430;53.186;6.598;2024-01-15T08:28:37;1.10;99.90
52979;DHT22;63430;53.186;6.598;2024-01-15T08:31:01;1.10;99.90
52979;DHT22;63430;53.186;6.598;2024-01-15T08:33:04;1.10;99.90
52979;DHT22;63430;53.186;6.598;2024-01-15T08:35:19;1.10;99.90
52979;DHT22;63430;53.186;6.598;2024-01-15T08:37:25;1.10;99.90
52979;DHT22;63430;53.186;6.598;2024-01-15T08:39:27;1.20;99.90
52979;DHT22;63430;53.186;6.598;2024-01-15T08:41:33;1.30;99.90
52979;DHT22;63430;53.186;6.598;2024-01-15T08:43:36;1.40;99.90
52979;DHT22;63430;53.186;6.598;2024-01-15T08:45:39;1.40;99.90
52979;DHT22;63430;53.186;6.598;2024-01-15T08:47:41;1.50;99.90
52979;DHT22;63430;53.186;6.598;2024-01-15T08:49:44;1.60;99.90
52979;DHT22;63430;53.186;6.598;2024-01-15T08:51:47;1.60;99.90
52979;DHT22;63430;53.186;6.598;2024-01-15T08:53:50;1.60;99.90
52979;DHT22;63430;53.186;6.598;2024-01-15T08:55:53;1.70;99.90
52979;DHT22;63430;53.186;6.598;2024-01-15T08:57:58;1.70;99.90
52979;DHT22;63430;53.186;6.598;2024-01-15T09:00:04;1.80;99.90
52979;DHT22;63430;53.186;6.598;2024-01-15T09:02:10;1.90;99.90
52979;DHT22;63430;53.186;6.598;2024-01-15T09:04:13;1.90;99.90
52979;DHT22;63430;53.186;6.598;2024-01-15T09:06:16;1.90;99.90
52979;DHT22;63430;53.186;6.598;2024-01-15T09:08:18;1.90;99.90
52979;DHT22;63430;53.186;6.598;2024-01-15T09:10:21;1.80;99.90
52979;DHT22;63430;53.186;6.598;2024-01-15T09:12:23;1.80;99.90
52979;DHT22;63430;53.186;6.598;2024-01-15T09:14:28;1.80;99.90
52979;DHT22;63430;53.186;6.598;2024-01-15T09:16:38;1.80;99.90
52979;DHT22;63430;53.186;6.598;2024-01-15T09:18:40;1.80;99.90
52979;DHT22;63430;53.186;6.598;2024-01-15T09:20:43;1.80;99.90
52979;DHT22;63430;53.186;6.598;2024-01-15T09:22:46;1.90;99.90
52979;DHT22;63430;53.186;6.598;2024-01-15T09:24:48;1.90;99.90
52979;DHT22;63430;53.186;6.598;2024-01-15T09:26:51;1.90;99.90
52979;DHT22;63430;53.186;6.598;2024-01-15T09:28:54;1.90;99.90
52979;DHT22;63430;53.186;6.598;2024-01-15T09:30:59;2.00;99.90
52979;DHT22;63430;53.186;6.598;2024-01-15T09:33:02;1.90;99.90
52979;DHT22;63430;53.186;6.598;2024-01-15T09:35:05;2.00;99.90
52979;DHT22;63430;53.186;6.598;2024-01-15T09:37:08;2.00;99.90
52979;DHT22;63430;53.186;6.598;2024-01-15T09:39:17;2.00;99.90
52979;DHT22;63430;53.186;6.598;2024-01-15T09:41:21;1.90;99.90
52979;DHT22;63430;53.186;6.598;2024-01-15T09:43:23;2.00;99.90
52979;DHT22;63430;53.186;6.598;2024-01-15T09:45:26;1.90;99.90
52979;DHT22;63430;53.186;6.598;2024-01-15T09:47:51;2.00;99.90
52979;DHT22;63430;53.186;6.598;2024-01-15T09:49:54;1.90;99.90
52979;DHT22;63430;53.186;6.598;2024-01-15T09:51:58;1.90;99.90
52979;DHT22;63430;53.186;6.598;2024-01-15T09:54:12;1.90;99.90
52979;DHT22;63430;53.186;6.598;2024-01-15T09:56:15;1.90;99.90
52979;DHT22;63430;53.186;6.598;2024-01-15T09:58:18;2.00;99.90
52979;DHT22;63430;53.186;6.598;2024-01-15T10:00:21;2.10;99.90
52979;DHT22;63430;53.186;6.598;2024-01-15T10:02:24;2.10;99.90
52979;DHT22;63430;53.186;6.598;2024-01-15T10:04:29;2.20;99.90
52979;DHT22;63430;53.186;6.598;2024-01-15T10:06:32;2.20;99.90
52979;DHT22;63430;53.186;6.598;2024-01-15T10:08:36;2.30;99.90
52979;DHT22;63430;53.186;6.598;2024-01-15T10:10:39;2.20;99.90
52979;DHT22;63430;53.186;6.598;2024-01-15T10:12:42;2.20;99.90
52979;DHT22;63430;53.186;6.598;2024-01-15T10:14:44;2.20;99.90
52979;DHT22;63430;53.186;6.598;2024-01-15T10:16:47;2.20;99.90
52979;DHT22;63430;53.186;6.598;2024-01-15T10:18:49;2.30;99.90
52979;DHT22;63430;53.186;6.598;2024-01-15T10:20:55;2.40;99.90
52979;DHT22;63430;53.186;6.598;2024-01-15T10:22:59;2.40;99.90
52979;DHT22;63430;53.186;6.598;2024-01-15T10:25:02;2.40;99.90
52979;DHT22;63430;53.186;6.598;2024-01-15T10:27:06;2.30;99.90
52979;DHT22;63430;53.186;6.598;2024-01-15T10:29:09;2.20;99.90
52979;DHT22;63430;53.186;6.598;2024-01-15T10:31:13;2.20;99.90
52979;DHT22;63430;53.186;6.598;2024-01-15T10:33:16;2.10;99.90
52979;DHT22;63430;53.186;6.598;2024-01-15T10:35:27;2.10;99.90
52979;DHT22;63430;53.186;6.598;2024-01-15T10:37:33;2.00;99.90
52979;DHT22;63430;53.186;6.598;2024-01-15T10:39:35;2.00;99.90
52979;DHT22;63430;53.186;6.598;2024-01-15T10:41:39;2.00;99.90
52979;DHT22;63430;53.186;6.598;2024-01-15T10:43:42;2.20;99.90
52979;DHT22;63430;53.186;6.598;2024-01-15T10:45:45;2.20;99.90
52979;DHT22;63430;53.186;6.598;2024-01-15T10:48:07;2.50;99.90
52979;DHT22;63430;53.186;6.598;2024-01-15T10:50:11;2.70;99.90
52979;DHT22;63430;53.186;6.598;2024-01-15T10:52:14;2.70;99.90
52979;DHT22;63430;53.186;6.598;2024-01-15T10:54:20;2.80;99.90
52979;DHT22;63430;53.186;6.598;2024-01-15T10:56:23;2.70;99.90
52979;DHT22;63430;53.186;6.598;2024-01-15T10:58:28;2.70;99.90
52979;DHT22;63430;53.186;6.598;2024-01-15T11:00:34;2.70;99.90
52979;DHT22;63430;53.186;6.598;2024-01-15T11:02:37;2.60;99.90
52979;DHT22;63430;53.186;6.598;2024-01-15T11:04:40;2.50;99.90
52979;DHT22;63430;53.186;6.598;2024-01-15T11:06:44;2.40;99.90
52979;DHT22;63430;53.186;6.598;2024-01-15T11:08:48;2.30;99.90
52979;DHT22;63430;53.186;6.598;2024-01-15T11:10:54;2.30;99.90
52979;DHT22;63430;53.186;6.598;2024-01-15T11:12:57;2.30;99.90
52979;DHT22;63430;53.186;6.598;2024-01-15T11:15:04;2.40;99.90
52979;DHT22;63430;53.186;6.598;2024-01-15T11:17:07;2.40;99.90
52979;DHT22;63430;53.186;6.598;2024-01-15T11:19:12;2.40;99.90
52979;DHT22;63430;53.186;6.598;2024-01-15T11:21:22;2.40;99.90
52979;DHT22;63430;53.186;6.598;2024-01-15T11:23:44;2.40;99.90
52979;DHT22;63430;53.186;6.598;2024-01-15T11:25:56;2.30;99.90
52979;DHT22;63430;53.186;6.598;2024-01-15T11:27:59;2.30;99.90
52979;DHT22;63430;53.186;6.598;2024-01-15T11:30:08;2.30;99.90
52979;DHT22;63430;53.186;6.598;2024-01-15T11:32:14;2.30;99.90
52979;DHT22;63430;53.186;6.598;2024-01-15T11:34:19;2.30;99.90
52979;DHT22;63430;53.186;6.598;2024-01-15T11:36:22;2.30;99.90
52979;DHT22;63430;53.186;6.598;2024-01-15T11:38:44;2.40;99.90
52979;DHT22;63430;53.186;6.598;2024-01-15T11:40:49;2.40;99.90
52979;DHT22;63430;53.186;6.598;2024-01-15T11:43:14;2.40;99.90
52979;DHT22;63430;53.186;6.598;2024-01-15T11:45:22;2.40;99.90
52979;DHT22;63430;53.186;6.598;2024-01-15T11:47:47;2.40;99.90
52979;DHT22;63430;53.186;6.598;2024-01-15T11:50:00;2.40;99.90
52979;DHT22;63430;53.186;6.598;2024-01-15T11:52:08;2.40;99.90
52979;DHT22;63430;53.186;6.598;2024-01-15T11:54:13;2.40;99.90
52979;DHT22;63430;53.186;6.598;2024-01-15T11:56:17;2.30;99.90
52979;DHT22;63430;53.186;6.598;2024-01-15T11:58:22;2.40;99.90
52979;DHT22;63430;53.186;6.598;2024-01-15T12:00:25;2.30;99.90
52979;DHT22;63430;53.186;6.598;2024-01-15T12:02:28;2.10;99.90
52979;DHT22;63430;53.186;6.598;2024-01-15T12:04:50;2.00;99.90
52979;DHT22;63430;53.186;6.598;2024-01-15T12:06:53;1.80;99.90
52979;DHT22;63430;53.186;6.598;2024-01-15T12:09:06;1.80;99.90
52979;DHT22;63430;53.186;6.598;2024-01-15T12:11:12;1.80;99.90
52979;DHT22;63430;53.186;6.598;2024-01-15T12:13:16;1.80;99.90
52979;DHT22;63430;53.186;6.598;2024-01-15T12:15:23;1.80;99.90
52979;DHT22;63430;53.186;6.598;2024-01-15T12:17:26;1.80;99.90
52979;DHT22;63430;53.186;6.598;2024-01-15T12:19:29;1.80;99.90
52979;DHT22;63430;53.186;6.598;2024-01-15T12:21:32;1.80;99.90
52979;DHT22;63430;53.186;6.598;2024-01-15T12:23:34;1.90;99.90
52979;DHT22;63430;53.186;6.598;2024-01-15T12:25:37;1.90;99.90
52979;DHT22;63430;53.186;6.598;2024-01-15T12:27:40;1.90;99.90
52979;DHT22;63430;53.186;6.598;2024-01-15T12:29:43;1.90;99.90
52979;DHT22;63430;53.186;6.598;2024-01-15T12:32:08;2.00;99.90
52979;DHT22;63430;53.186;6.598;2024-01-15T12:34:11;2.00;99.90
52979;DHT22;63430;53.186;6.598;2024-01-15T12:36:14;1.90;99.90
52979;DHT22;63430;53.186;6.598;2024-01-15T12:38:19;2.00;99.90
52979;DHT22;63430;53.186;6.598;2024-01-15T12:40:22;1.90;99.90
52979;DHT22;63430;53.186;6.598;2024-01-15T12:42:25;2.00;99.90
52979;DHT22;63430;53.186;6.598;2024-01-15T12:44:28;2.00;99.90
52979;DHT22;63430;53.186;6.598;2024-01-15T12:46:30;2.10;99.90
52979;DHT22;63430;53.186;6.598;2024-01-15T12:48:37;2.20;99.90
52979;DHT22;63430;53.186;6.598;2024-01-15T12:50:59;2.30;99.90
52979;DHT22;63430;53.186;6.598;2024-01-15T12:53:02;2.30;99.90
52979;DHT22;63430;53.186;6.598;2024-01-15T12:55:06;2.30;99.90
52979;DHT22;63430;53.186;6.598;2024-01-15T12:57:29;2.40;99.90
52979;DHT22;63430;53.186;6.598;2024-01-15T12:59:34;2.40;99.90
52979;DHT22;63430;53.186;6.598;2024-01-15T13:01:37;2.40;99.90
52979;DHT22;63430;53.186;6.598;2024-01-15T13:03:42;2.40;99.90
52979;DHT22;63430;53.186;6.598;2024-01-15T13:05:45;2.40;99.90
52979;DHT22;63430;53.186;6.598;2024-01-15T13:07:48;2.40;99.90
52979;DHT22;63430;53.186;6.598;2024-01-15T13:09:50;2.40;99.90
52979;DHT22;63430;53.186;6.598;2024-01-15T13:11:56;2.40;99.90
52979;DHT22;63430;53.186;6.598;2024-01-15T13:13:59;2.50;99.90
52979;DHT22;63430;53.186;6.598;2024-01-15T13:16:01;2.50;99.90
52979;DHT22;63430;53.186;6.598;2024-01-15T13:18:05;2.60;99.90
52979;DHT22;63430;53.186;6.598;2024-01-15T13:20:12;2.60;99.90
52979;DHT22;63430;53.186;6.598;2024-01-15T13:22:15;2.60;99.90